Time;durP1;ratioP1;P1;durP2;ratioP2;P2;SDS_P1;SDS_P2;PMS_P1;PMS_P2;Temp;Humidity;BMP_temperature;BMP_pressure;BME280_temperature;BME280_humidity;BME280_pressure;Samples;Min_cycle;Max_cycle;Signal;HPM_P1;HPM_P2
2023/07/13 00:00:25;;;;;;;2.13;1.70;;;18.80;99.90;;;;;;5036119;28;20110;-66
2023/07/13 00:02:53;;;;;;;3.33;2.08;;;18.80;99.90;;;;;;5036049;28;20056;-66
2023/07/13 00:05:20;;;;;;;1.70;1.60;;;18.80;99.90;;;;;;5053995;28;20036;-66
2023/07/13 00:07:46;;;;;;;2.47;1.48;;;18.80;99.90;;;;;;5036252;28;20036;-66
2023/07/13 00:10:12;;;;;;;2.72;1.30;;;18.70;99.90;;;;;;5053855;28;20354;-66
2023/07/13 00:12:38;;;;;;;2.22;1.70;;;18.70;99.90;;;;;;5053685;28;20029;-66
2023/07/13 00:15:22;;;;;;;5.75;1.83;;;18.70;99.90;;;;;;5054029;28;20051;-65
2023/07/13 00:17:48;;;;;;;1.90;1.70;;;18.70;99.90;;;;;;5053804;28;20021;-66
2023/07/13 00:20:14;;;;;;;2.83;1.95;;;18.70;99.90;;;;;;5054180;28;20067;-66
2023/07/13 00:22:40;;;;;;;2.33;1.30;;;18.60;99.90;;;;;;5035777;28;20029;-65
2023/07/13 00:25:06;;;;;;;1.40;1.30;;;18.60;99.90;;;;;;5053941;28;20056;-65
2023/07/13 00:27:32;;;;;;;3.25;1.88;;;18.60;99.90;;;;;;5053701;28;20078;-65
2023/07/13 00:29:58;;;;;;;1.92;1.20;;;18.50;99.90;;;;;;5035921;28;20067;-65
2023/07/13 00:32:27;;;;;;;2.13;1.25;;;18.60;99.90;;;;;;5035858;28;20028;-65
2023/07/13 00:34:53;;;;;;;1.90;1.50;;;18.60;99.90;;;;;;5053526;28;20171;-65
2023/07/13 00:37:19;;;;;;;3.45;1.73;;;18.70;99.90;;;;;;5053568;28;20067;-65
2023/07/13 00:39:44;;;;;;;1.55;1.08;;;18.70;99.90;;;;;;5053251;28;20388;-65
2023/07/13 00:42:11;;;;;;;2.03;1.10;;;18.60;99.90;;;;;;5053500;28;20025;-65
2023/07/13 00:44:36;;;;;;;1.40;1.20;;;18.70;99.90;;;;;;5035620;28;20093;-65
2023/07/13 00:47:02;;;;;;;2.38;1.35;;;18.70;99.90;;;;;;5053640;28;20052;-65
2023/07/13 00:49:30;;;;;;;1.55;1.00;;;18.70;99.90;;;;;;5053169;28;20063;-65
2023/07/13 00:52:06;;;;;;;2.13;1.33;;;18.60;99.90;;;;;;5050943;28;20048;-65
2023/07/13 00:54:39;;;;;;;1.65;1.33;;;18.70;99.90;;;;;;5072250;28;20141;-65
2023/07/13 00:57:08;;;;;;;3.13;1.30;;;18.60;99.90;;;;;;5073556;28;20020;-65
2023/07/13 00:59:36;;;;;;;2.10;1.60;;;18.60;99.90;;;;;;5073507;28;20016;-65
2023/07/13 01:02:02;;;;;;;2.05;1.30;;;18.60;99.90;;;;;;5072365;28;20027;-65
2023/07/13 01:04:28;;;;;;;1.77;1.20;;;18.60;99.90;;;;;;5075349;28;20380;-65
2023/07/13 01:06:54;;;;;;;1.55;1.13;;;18.60;99.90;;;;;;5077169;28;20108;-65
2023/07/13 01:09:20;;;;;;;3.60;0.90;;;18.60;99.90;;;;;;5077158;28;20041;-65
2023/07/13 01:11:46;;;;;;;2.30;0.90;;;18.60;99.90;;;;;;5077086;28;20111;-65
2023/07/13 01:14:13;;;;;;;1.40;0.70;;;18.60;99.90;;;;;;5075620;28;20058;-65
2023/07/13 01:16:41;;;;;;;0.90;0.90;;;18.70;99.90;;;;;;5076693;28;20028;-65
2023/07/13 01:19:42;;;;;;;2.50;0.90;;;18.80;99.90;;;;;;5077010;28;20021;-65
2023/07/13 01:22:18;;;;;;;0.95;0.80;;;18.90;99.90;;;;;;5076957;28;20313;-65
2023/07/13 01:24:46;;;;;;;3.60;0.88;;;18.90;99.90;;;;;;5075566;28;20029;-65
2023/07/13 01:27:17;;;;;;;1.08;0.73;;;18.90;99.90;;;;;;5077092;28;20039;-65
2023/07/13 01:29:44;;;;;;;1.73;0.90;;;18.90;99.90;;;;;;5076769;28;20032;-65
2023/07/13 01:32:12;;;;;;;0.55;0.55;;;19.00;99.90;;;;;;5076696;28;20111;-65
2023/07/13 01:34:38;;;;;;;2.20;0.70;;;19.10;99.90;;;;;;5075348;28;20064;-65
2023/07/13 01:37:07;;;;;;;2.95;0.70;;;19.20;99.90;;;;;;5076370;28;20023;-65
2023/07/13 01:39:32;;;;;;;;;;;19.20;99.90;;;;;;5076953;28;20020;-65
2023/07/13 01:41:58;;;;;;;3.38;0.82;;;19.20;99.90;;;;;;5075970;28;19908;-65
2023/07/13 01:44:24;;;;;;;0.95;0.57;;;19.20;99.90;;;;;;5076674;28;20068;-65
2023/07/13 01:46:50;;;;;;;1.00;0.55;;;19.20;99.90;;;;;;5076204;28;20438;-65
2023/07/13 01:49:16;;;;;;;0.50;0.47;;;19.30;99.90;;;;;;5075252;28;20024;-65
2023/07/13 01:51:41;;;;;;;3.10;0.80;;;19.30;99.90;;;;;;5074909;28;20091;-65
2023/07/13 01:54:07;;;;;;;0.50;0.50;;;19.50;99.90;;;;;;5074967;28;20094;-65
2023/07/13 01:56:33;;;;;;;3.28;0.50;;;19.70;99.90;;;;;;5076278;28;20035;-65
2023/07/13 01:58:58;;;;;;;2.40;0.70;;;20.00;99.90;;;;;;5076355;28;20024;-65
2023/07/13 02:01:24;;;;;;;1.58;0.77;;;20.10;99.90;;;;;;5076461;28;20024;-65
2023/07/13 02:03:49;;;;;;;0.68;0.65;;;20.50;99.90;;;;;;5076156;28;20130;-65
2023/07/13 02:06:15;;;;;;;3.75;0.70;;;20.60;99.90;;;;;;5076229;28;20024;-65
2023/07/13 02:08:42;;;;;;;1.50;0.68;;;20.70;99.90;;;;;;5076054;28;20384;-65
2023/07/13 02:11:08;;;;;;;1.25;0.75;;;20.80;99.90;;;;;;5074751;28;20036;-65
2023/07/13 02:13:34;;;;;;;1.88;0.80;;;20.90;99.90;;;;;;5074592;28;20032;-65
2023/07/13 02:16:00;;;;;;;1.42;0.70;;;20.90;99.90;;;;;;5073485;28;20391;-65
2023/07/13 02:18:26;;;;;;;0.90;0.90;;;20.90;99.90;;;;;;5075865;28;20036;-65
2023/07/13 02:20:52;;;;;;;2.72;0.88;;;20.90;99.90;;;;;;5075830;28;20031;-65
2023/07/13 02:23:17;;;;;;;1.05;0.80;;;21.00;99.90;;;;;;5074688;28;20028;-65
2023/07/13 02:25:43;;;;;;;0.60;0.60;;;21.00;99.90;;;;;;5075719;28;20025;-65
2023/07/13 02:28:09;;;;;;;1.58;0.88;;;21.00;99.90;;;;;;5075675;28;20104;-65
2023/07/13 02:30:35;;;;;;;1.33;0.73;;;21.00;99.90;;;;;;5074361;28;20055;-65
2023/07/13 02:33:01;;;;;;;2.10;0.93;;;20.90;99.90;;;;;;5074253;28;20024;-65
2023/07/13 02:35:26;;;;;;;2.55;1.05;;;21.00;99.90;;;;;;5075516;28;20025;-65
2023/07/13 02:37:52;;;;;;;1.30;0.82;;;20.90;99.90;;;;;;5075199;28;20108;-65
2023/07/13 02:40:17;;;;;;;1.25;0.80;;;21.00;99.90;;;;;;5075263;28;20427;-65
2023/07/13 02:42:43;;;;;;;2.28;0.90;;;21.00;99.90;;;;;;5074283;28;20028;-65
2023/07/13 02:45:09;;;;;;;1.67;0.90;;;21.00;99.90;;;;;;5075747;28;20456;-65
2023/07/13 02:47:36;;;;;;;2.47;1.38;;;21.10;99.90;;;;;;5075295;28;20024;-65
2023/07/13 02:50:02;;;;;;;2.63;1.35;;;21.10;99.90;;;;;;5075227;28;20089;-65
2023/07/13 02:52:27;;;;;;;1.48;1.20;;;21.10;99.90;;;;;;5061337;28;20037;-65
2023/07/13 02:54:53;;;;;;;3.28;1.30;;;21.10;99.90;;;;;;5037244;28;20044;-65
2023/07/13 02:57:19;;;;;;;1.45;1.10;;;21.10;99.90;;;;;;5055074;28;20024;-65
2023/07/13 02:59:44;;;;;;;1.25;0.80;;;21.00;99.90;;;;;;5055018;28;20056;-65
2023/07/13 03:02:10;;;;;;;2.38;1.10;;;21.00;99.90;;;;;;5055357;28;20095;-65
2023/07/13 03:04:36;;;;;;;2.65;1.30;;;20.90;99.90;;;;;;5037138;28;20056;-65
2023/07/13 03:07:03;;;;;;;2.67;1.13;;;20.80;99.90;;;;;;5054679;28;20029;-65
2023/07/13 03:09:28;;;;;;;1.52;1.23;;;20.70;99.90;;;;;;5037172;28;20377;-65
2023/07/13 03:11:55;;;;;;;1.60;0.90;;;20.60;99.90;;;;;;5055073;28;20025;-66
2023/07/13 03:14:21;;;;;;;1.77;0.98;;;20.50;99.90;;;;;;5036754;28;20033;-66
2023/07/13 03:16:47;;;;;;;1.30;1.20;;;20.40;99.90;;;;;;5037448;28;20103;-66
2023/07/13 03:19:12;;;;;;;5.45;1.52;;;20.20;99.90;;;;;;5036749;28;20167;-65
2023/07/13 03:21:38;;;;;;;3.67;1.33;;;20.00;99.90;;;;;;5054607;28;20025;-66
2023/07/13 03:24:04;;;;;;;4.32;1.38;;;19.90;99.90;;;;;;5036842;28;20033;-65
2023/07/13 03:26:30;;;;;;;7.65;1.98;;;19.70;99.90;;;;;;5036832;28;20354;-67
2023/07/13 03:28:55;;;;;;;4.95;1.95;;;19.60;99.90;;;;;;5054450;28;20064;-66
2023/07/13 03:31:24;;;;;;;1.80;1.58;;;19.40;99.90;;;;;;5036529;28;20479;-66
2023/07/13 03:33:50;;;;;;;;;;;19.30;99.90;;;;;;5054734;28;20037;-66
2023/07/13 03:36:22;;;;;;;6.47;1.77;;;19.10;99.90;;;;;;5054566;28;20121;-66
2023/07/13 03:38:53;;;;;;;6.63;1.90;;;19.00;99.90;;;;;;5036418;28;20029;-66
2023/07/13 03:41:20;;;;;;;5.43;1.90;;;18.90;99.90;;;;;;5036318;28;20029;-66
2023/07/13 03:43:47;;;;;;;5.72;2.85;;;18.80;99.90;;;;;;5036368;28;20081;-66
2023/07/13 03:46:14;;;;;;;7.97;2.30;;;18.80;99.90;;;;;;5036750;28;20021;-66
2023/07/13 03:48:43;;;;;;;4.55;2.10;;;18.70;99.90;;;;;;5054388;28;20025;-66
2023/07/13 03:51:09;;;;;;;3.35;1.55;;;18.70;99.90;;;;;;5054085;28;20384;-66
2023/07/13 03:53:40;;;;;;;26.05;2.58;;;18.70;99.90;;;;;;5036084;28;20041;-66
2023/07/13 03:56:06;;;;;;;5.28;2.00;;;18.60;99.90;;;;;;5036111;28;20029;-66
2023/07/13 03:58:34;;;;;;;7.20;2.38;;;18.60;99.90;;;;;;5036113;28;20108;-66
2023/07/13 04:01:01;;;;;;;5.35;2.40;;;18.60;99.90;;;;;;5036308;28;20028;-66
2023/07/13 04:03:28;;;;;;;3.67;2.40;;;18.60;99.90;;;;;;5053874;28;20043;-66
2023/07/13 04:05:59;;;;;;;6.30;2.20;;;18.60;99.90;;;;;;5053786;28;20025;-66
2023/07/13 04:08:28;;;;;;;3.58;1.90;;;18.60;99.90;;;;;;5054052;28;20025;-66
2023/07/13 04:10:54;;;;;;;3.88;2.22;;;18.50;99.90;;;;;;5053936;28;20028;-66
2023/07/13 04:13:20;;;;;;;2.42;1.75;;;18.40;99.90;;;;;;5035819;28;20492;-66
2023/07/13 04:15:46;;;;;;;6.20;1.88;;;18.40;99.90;;;;;;5053592;28;20029;-70
2023/07/13 04:18:11;;;;;;;3.05;2.13;;;18.40;99.90;;;;;;5053410;28;20154;-61
2023/07/13 04:20:37;;;;;;;7.30;2.22;;;18.40;99.90;;;;;;5053534;28;20404;-61
2023/07/13 04:23:03;;;;;;;6.88;2.72;;;18.50;99.90;;;;;;5035786;28;20029;-62
2023/07/13 04:25:28;;;;;;;6.50;2.63;;;18.50;99.90;;;;;;5035809;28;20491;-61
2023/07/13 04:27:54;;;;;;;4.43;2.78;;;18.50;99.90;;;;;;5053921;28;20067;-62
2023/07/13 04:30:20;;;;;;;4.93;2.50;;;18.60;99.90;;;;;;5035821;28;20021;-62
2023/07/13 04:32:46;;;;;;;3.55;2.50;;;18.60;99.90;;;;;;5053471;28;20493;-62
2023/07/13 04:35:14;;;;;;;3.88;2.55;;;18.60;99.90;;;;;;5053532;28;20041;-62
2023/07/13 04:37:40;;;;;;;3.65;2.25;;;18.50;99.90;;;;;;5035376;28;20067;-62
2023/07/13 04:40:06;;;;;;;5.80;2.40;;;18.60;99.90;;;;;;5039797;28;20025;-62
2023/07/13 04:42:32;;;;;;;4.95;2.55;;;18.50;99.90;;;;;;5057350;28;20033;-62
2023/07/13 04:44:58;;;;;;;5.88;2.33;;;18.50;99.90;;;;;;5039287;28;20120;-62
2023/07/13 04:47:23;;;;;;;5.95;2.60;;;18.50;99.90;;;;;;5057721;28;20116;-62
2023/07/13 04:49:49;;;;;;;3.58;2.30;;;18.50;99.90;;;;;;5057483;28;20033;-62
2023/07/13 04:52:14;;;;;;;5.25;2.92;;;18.50;99.90;;;;;;5057364;28;20057;-62
2023/07/13 04:54:40;;;;;;;5.45;1.83;;;18.50;99.90;;;;;;5056969;28;20079;-62
2023/07/13 04:57:06;;;;;;;5.35;2.20;;;18.50;99.90;;;;;;5039464;28;20397;-62
2023/07/13 04:59:33;;;;;;;4.97;1.98;;;18.50;99.90;;;;;;5056985;28;20021;-62
2023/07/13 05:01:58;;;;;;;2.67;1.50;;;18.50;99.90;;;;;;5056984;28;20025;-66
2023/07/13 05:04:24;;;;;;;3.55;2.00;;;18.60;99.90;;;;;;5039422;28;20029;-66
2023/07/13 05:06:50;;;;;;;6.90;2.80;;;18.50;99.90;;;;;;5039304;28;20036;-66
2023/07/13 05:09:16;;;;;;;3.95;2.25;;;18.60;99.90;;;;;;5039253;28;20099;-66
2023/07/13 05:11:43;;;;;;;5.30;2.20;;;18.50;99.90;;;;;;5057277;28;20032;-67
2023/07/13 05:14:12;;;;;;;6.43;2.47;;;18.50;99.90;;;;;;5057308;28;20052;-56
2023/07/13 05:16:37;;;;;;;4.35;2.35;;;18.60;99.90;;;;;;5057130;28;20033;-56
2023/07/13 05:19:03;;;;;;;4.82;2.78;;;18.70;99.90;;;;;;5056607;28;20036;-57
2023/07/13 05:21:29;;;;;;;3.65;2.10;;;18.70;99.90;;;;;;5056874;28;20102;-56
2023/07/13 05:23:55;;;;;;;2.95;2.00;;;18.90;99.90;;;;;;5038912;28;20116;-56
2023/07/13 05:26:20;;;;;;;4.40;1.80;;;19.00;99.90;;;;;;5056796;28;20029;-56
2023/07/13 05:28:47;;;;;;;2.65;1.55;;;19.10;99.90;;;;;;5039188;28;20103;-56
2023/07/13 05:31:13;;;;;;;3.38;1.33;;;19.20;99.90;;;;;;5038637;28;20112;-56
2023/07/13 05:33:39;;;;;;;3.80;1.40;;;19.40;99.90;;;;;;5056268;28;20041;-56
2023/07/13 05:36:05;;;;;;;4.07;1.70;;;19.50;99.90;;;;;;5056490;28;20048;-56
2023/07/13 05:38:31;;;;;;;2.22;1.40;;;19.50;99.90;;;;;;5056623;28;20084;-56
2023/07/13 05:40:57;;;;;;;1.88;1.45;;;19.50;99.90;;;;;;5056413;28;20151;-56
2023/07/13 05:43:23;;;;;;;4.07;1.42;;;19.40;99.90;;;;;;5038474;28;20055;-56
2023/07/13 05:45:50;;;;;;;2.00;1.50;;;19.40;99.90;;;;;;5056113;28;20465;-56
2023/07/13 05:48:16;;;;;;;5.68;1.83;;;19.40;99.90;;;;;;5056033;28;20108;-56
2023/07/13 05:50:42;;;;;;;1.55;1.30;;;19.40;99.90;;;;;;5056110;28;20104;-57
2023/07/13 05:53:07;;;;;;;2.95;1.30;;;19.30;99.90;;;;;;5073704;28;20044;-56
2023/07/13 05:55:33;;;;;;;3.10;1.00;;;19.20;99.90;;;;;;5076377;28;20036;-56
2023/07/13 05:58:00;;;;;;;3.97;1.60;;;19.20;99.90;;;;;;5076150;28;20084;-56
2023/07/13 06:00:26;;;;;;;3.08;1.48;;;19.20;99.90;;;;;;5074764;28;20460;-56
2023/07/13 06:02:52;;;;;;;2.50;1.40;;;19.30;99.90;;;;;;5076127;28;20173;-56
2023/07/13 06:05:18;;;;;;;1.80;1.70;;;19.30;99.90;;;;;;5076228;28;20032;-56
2023/07/13 06:07:43;;;;;;;2.80;1.40;;;19.30;99.90;;;;;;5076304;28;20086;-56
2023/07/13 06:10:10;;;;;;;2.60;1.23;;;19.30;99.90;;;;;;5076135;28;20086;-56
2023/07/13 06:12:35;;;;;;;2.40;1.45;;;19.30;99.90;;;;;;5074537;28;20020;-56
2023/07/13 06:15:01;;;;;;;3.65;1.52;;;19.30;99.90;;;;;;5074914;28;20385;-56
2023/07/13 06:17:27;;;;;;;1.20;1.10;;;19.40;99.90;;;;;;5075529;28;20476;-57
2023/07/13 06:19:52;;;;;;;4.05;1.20;;;19.40;99.90;;;;;;5075771;28;20031;-57
2023/07/13 06:22:18;;;;;;;1.70;1.25;;;19.40;99.90;;;;;;5075346;28;20021;-57
2023/07/13 06:24:43;;;;;;;2.90;1.10;;;19.40;99.90;;;;;;5075940;28;20457;-57
2023/07/13 06:27:09;;;;;;;1.90;1.17;;;19.40;99.90;;;;;;5075642;28;20029;-57
2023/07/13 06:29:35;;;;;;;1.02;0.93;;;19.50;99.90;;;;;;5075530;28;20376;-57
2023/07/13 06:32:01;;;;;;;1.73;1.10;;;19.50;99.90;;;;;;5075230;28;20029;-61
2023/07/13 06:34:26;;;;;;;1.05;0.80;;;19.60;99.90;;;;;;5075122;28;20032;-59
2023/07/13 06:36:52;;;;;;;1.25;1.15;;;19.70;99.90;;;;;;5073828;28;20032;-60
2023/07/13 06:39:18;;;;;;;1.48;0.95;;;19.70;99.90;;;;;;5074001;28;20025;-59
2023/07/13 06:41:43;;;;;;;1.15;0.80;;;19.80;99.90;;;;;;5074681;28;20028;-59
2023/07/13 06:44:09;;;;;;;1.60;1.00;;;19.80;99.90;;;;;;5075436;28;20036;-59
2023/07/13 06:46:34;;;;;;;1.35;1.00;;;19.80;99.90;;;;;;5075527;28;20048;-59
2023/07/13 06:49:00;;;;;;;1.40;0.80;;;19.80;99.90;;;;;;5074246;28;20115;-60
2023/07/13 06:51:26;;;;;;;0.98;0.70;;;19.80;99.90;;;;;;5069969;28;20056;-59
2023/07/13 06:53:52;;;;;;;1.88;0.90;;;19.80;99.90;;;;;;5055157;28;20032;-60
2023/07/13 06:56:17;;;;;;;1.52;0.68;;;19.70;99.90;;;;;;5037145;28;20116;-60
2023/07/13 06:58:43;;;;;;;6.30;0.90;;;19.80;99.90;;;;;;5055091;28;20029;-59
2023/07/13 07:01:09;;;;;;;1.08;0.80;;;19.70;99.90;;;;;;5054316;28;20083;-60
2023/07/13 07:03:35;;;;;;;4.88;0.98;;;19.70;99.90;;;;;;5054664;28;20071;-59
2023/07/13 07:06:13;;;;;;;2.15;0.88;;;19.80;99.90;;;;;;5054537;28;20021;-58
2023/07/13 07:08:38;;;;;;;1.38;0.98;;;20.00;99.90;;;;;;5054626;28;20436;-58
2023/07/13 07:11:05;;;;;;;2.70;1.17;;;20.10;99.90;;;;;;5036861;28;20060;-58
2023/07/13 07:13:31;;;;;;;1.23;1.08;;;20.20;99.90;;;;;;5054635;28;20040;-57
2023/07/13 07:15:56;;;;;;;3.47;1.50;;;20.20;99.90;;;;;;5036822;28;20029;-57
2023/07/13 07:18:22;;;;;;;2.17;1.33;;;20.20;99.90;;;;;;5036996;28;20052;-59
2023/07/13 07:20:49;;;;;;;1.67;1.00;;;20.30;99.90;;;;;;5054478;28;20568;-58
2023/07/13 07:23:15;;;;;;;3.88;0.77;;;20.40;99.90;;;;;;5054942;28;20025;-59
2023/07/13 07:25:42;;;;;;;4.45;1.42;;;20.40;99.90;;;;;;5054136;28;20024;-60
2023/07/13 07:28:08;;;;;;;4.78;0.77;;;20.50;99.90;;;;;;5054632;28;20037;-59
2023/07/13 07:30:35;;;;;;;3.42;0.77;;;20.60;99.90;;;;;;5054429;28;20032;-58
2023/07/13 07:33:01;;;;;;;3.20;0.85;;;20.60;99.90;;;;;;5036453;28;20025;-59
2023/07/13 07:35:26;;;;;;;1.90;0.85;;;20.60;99.90;;;;;;5036472;28;20094;-59
2023/07/13 07:37:52;;;;;;;1.13;0.70;;;20.70;99.90;;;;;;5054262;28;20075;-60
2023/07/13 07:40:19;;;;;;;2.20;0.77;;;20.70;99.90;;;;;;5054151;28;20029;-59
2023/07/13 07:42:44;;;;;;;1.10;0.82;;;20.70;99.90;;;;;;5054325;28;20123;-59
2023/07/13 07:45:11;;;;;;;3.50;0.85;;;20.80;99.90;;;;;;5054042;28;20060;-59
2023/07/13 07:47:37;;;;;;;3.97;0.60;;;20.80;99.90;;;;;;5036205;28;20036;-59
2023/07/13 07:50:03;;;;;;;2.47;0.77;;;20.90;99.90;;;;;;5036256;28;20507;-59
2023/07/13 07:52:29;;;;;;;0.57;0.57;;;21.10;99.90;;;;;;5054188;28;20056;-59
2023/07/13 07:54:55;;;;;;;1.77;0.75;;;21.30;99.90;;;;;;5053928;28;20116;-59
2023/07/13 07:57:21;;;;;;;1.83;0.70;;;21.40;99.90;;;;;;5036061;28;20064;-59
2023/07/13 07:59:46;;;;;;;0.63;0.60;;;21.60;99.90;;;;;;5036036;28;20029;-59
2023/07/13 08:02:12;;;;;;;2.35;0.75;;;22.00;99.90;;;;;;5035942;28;20033;-59
2023/07/13 08:04:37;;;;;;;1.80;0.40;;;22.60;99.90;;;;;;5035927;28;20067;-59
2023/07/13 08:07:03;;;;;;;0.98;0.45;;;23.10;99.90;;;;;;5035677;28;20025;-59
2023/07/13 08:09:29;;;;;;;1.50;0.70;;;23.50;99.90;;;;;;5053755;28;20033;-60
2023/07/13 08:11:55;;;;;;;2.35;0.55;;;24.10;99.90;;;;;;5053316;28;20025;-60
2023/07/13 08:14:21;;;;;;;2.38;0.63;;;24.80;99.90;;;;;;5052649;28;20484;-60
2023/07/13 08:16:46;;;;;;;0.70;0.63;;;25.50;99.90;;;;;;5053715;28;20033;-60
2023/07/13 08:19:12;;;;;;;2.22;1.00;;;25.40;99.90;;;;;;5035681;28;20059;-60
2023/07/13 08:21:38;;;;;;;1.13;0.88;;;25.00;99.90;;;;;;5053560;28;20066;-60
2023/07/13 08:24:04;;;;;;;3.38;1.10;;;24.60;99.90;;;;;;5035647;28;20035;-60
2023/07/13 08:26:29;;;;;;;1.83;1.05;;;24.40;99.90;;;;;;5053318;28;20384;-60
2023/07/13 08:28:55;;;;;;;2.22;1.20;;;24.30;99.90;;;;;;5053348;28;20025;-60
2023/07/13 08:31:21;;;;;;;2.13;1.10;;;24.20;99.90;;;;;;5053469;28;20060;-60
2023/07/13 08:33:46;;;;;;;1.30;1.08;;;24.10;99.90;;;;;;5053359;28;20033;-61
2023/07/13 08:36:12;;;;;;;1.98;0.90;;;24.20;99.90;;;;;;5035769;28;20084;-61
2023/07/13 08:38:37;;;;;;;2.75;0.80;;;24.50;99.90;;;;;;5053227;28;20449;-60
2023/07/13 08:41:14;;;;;;;1.75;1.00;;;25.00;99.90;;;;;;5053360;28;20021;-60
2023/07/13 08:43:42;;;;;;;1.85;0.75;;;25.60;99.90;;;;;;5035545;28;20039;-61
2023/07/13 08:46:19;;;;;;;2.03;1.00;;;26.10;99.90;;;;;;5053364;28;20025;-61
2023/07/13 08:48:48;;;;;;;3.08;1.23;;;26.30;99.90;;;;;;5035958;28;20029;-60
2023/07/13 08:51:33;;;;;;;1.63;1.00;;;26.50;99.90;;;;;;5038900;28;20044;-61
2023/07/13 08:54:02;;;;;;;1.88;1.35;;;27.00;99.90;;;;;;5073285;28;20036;-61
2023/07/13 08:56:30;;;;;;;1.25;1.10;;;27.20;99.90;;;;;;5073312;28;20028;-61
2023/07/13 08:59:27;;;;;;;3.10;1.23;;;27.60;99.90;;;;;;5073559;28;20066;-60
2023/07/13 09:02:06;;;;;;;1.42;1.33;;;27.30;99.30;;;;;;5056323;28;20068;-60
2023/07/13 09:04:48;;;;;;;3.83;1.50;;;27.00;99.20;;;;;;5071695;28;20039;-60
2023/07/13 09:07:21;;;;;;;3.67;1.40;;;26.80;99.40;;;;;;5073442;28;20048;-60
2023/07/13 09:10:39;;;;;;;4.85;1.45;;;27.50;98.90;;;;;;5071945;28;20032;-60
2023/07/13 09:13:13;;;;;;;1.40;1.30;;;27.70;98.40;;;;;;4975072;28;20048;-61
2023/07/13 09:15:43;;;;;;;3.75;1.67;;;27.80;97.40;;;;;;5056788;28;20082;-62
2023/07/13 09:18:17;;;;;;;1.73;1.63;;;27.90;97.30;;;;;;5073090;28;20031;-62
2023/07/13 09:20:49;;;;;;;2.58;1.40;;;28.50;96.70;;;;;;5073205;28;20074;-62
2023/07/13 09:23:19;;;;;;;2.03;1.50;;;29.10;95.90;;;;;;5073666;28;20055;-62
2023/07/13 09:25:48;;;;;;;3.38;1.45;;;29.00;94.40;;;;;;5075087;28;20491;-62
2023/07/13 09:28:23;;;;;;;4.50;1.65;;;28.40;94.90;;;;;;5077039;28;20199;-62
2023/07/13 09:31:29;;;;;;;1.48;1.38;;;28.10;94.60;;;;;;5076915;28;20060;-62
2023/07/13 09:33:55;;;;;;;3.95;1.60;;;28.50;93.70;;;;;;5036528;28;20115;-62
2023/07/13 09:36:23;;;;;;;2.00;1.30;;;28.70;93.20;;;;;;5076315;28;20171;-62
2023/07/13 09:38:57;;;;;;;1.85;1.70;;;28.90;92.80;;;;;;5077117;28;20086;-61
2023/07/13 09:41:50;;;;;;;5.97;1.90;;;28.80;91.60;;;;;;5076576;28;20025;-62
2023/07/13 09:44:33;;;;;;;1.33;1.33;;;28.80;91.30;;;;;;5076456;28;20036;-68
2023/07/13 09:46:59;;;;;;;1.98;1.70;;;28.80;90.90;;;;;;5076365;28;20021;-76
2023/07/13 09:49:33;;;;;;;7.20;2.20;;;28.70;90.00;;;;;;5075340;28;20457;-72
2023/07/13 09:52:02;;;;;;;2.78;2.40;;;28.70;90.00;;;;;;5074959;28;20083;-67
2023/07/13 09:54:28;;;;;;;6.18;2.20;;;28.80;89.50;;;;;;5076122;28;20033;-66
2023/07/13 09:56:56;;;;;;;3.25;2.10;;;28.50;88.50;;;;;;5074952;28;20032;-68
2023/07/13 09:59:24;;;;;;;2.03;1.83;;;28.20;88.60;;;;;;5075861;28;20380;-66
2023/07/13 10:01:50;;;;;;;2.97;2.20;;;28.00;90.00;;;;;;5076421;28;20115;-67
2023/07/13 10:04:27;;;;;;;2.28;1.98;;;28.20;90.40;;;;;;5076103;28;20029;-67
2023/07/13 10:07:05;;;;;;;3.67;2.00;;;28.00;90.80;;;;;;5075842;28;20024;-67
2023/07/13 10:09:32;;;;;;;2.05;1.92;;;28.00;90.70;;;;;;5075788;28;20036;-67
2023/07/13 10:11:58;;;;;;;3.92;2.05;;;28.20;90.40;;;;;;5074151;28;20025;-67
2023/07/13 10:14:25;;;;;;;2.58;2.20;;;27.90;89.90;;;;;;5074468;28;20089;-67
2023/07/13 10:16:58;;;;;;;3.10;2.20;;;27.50;90.70;;;;;;5075818;28;20035;-67
2023/07/13 10:19:32;;;;;;;2.22;2.00;;;27.00;91.30;;;;;;5075759;28;20024;-66
2023/07/13 10:22:27;;;;;;;2.58;1.95;;;26.70;92.10;;;;;;5075983;28;20021;-67
2023/07/13 10:24:54;;;;;;;4.47;1.95;;;26.90;92.10;;;;;;5068312;28;20044;-67
2023/07/13 10:27:29;;;;;;;2.33;2.10;;;27.10;91.40;;;;;;5074277;28;20090;-67
2023/07/13 10:30:17;;;;;;;1.75;1.65;;;27.10;91.30;;;;;;5075717;28;20025;-67
2023/07/13 10:32:43;;;;;;;4.32;2.53;;;27.40;91.30;;;;;;5075578;28;20071;-64
2023/07/13 10:35:13;;;;;;;5.07;2.15;;;27.40;91.40;;;;;;5075010;28;20067;-64
2023/07/13 10:37:52;;;;;;;3.03;2.13;;;27.00;91.00;;;;;;5074920;28;20028;-64
2023/07/13 10:40:38;;;;;;;;;;;27.00;91.40;;;;;;5076109;28;20021;-64
2023/07/13 10:43:11;;;;;;;2.88;2.63;;;27.10;91.10;;;;;;5074885;28;20349;-64
2023/07/13 10:45:37;;;;;;;2.38;2.17;;;27.50;90.10;;;;;;5075151;28;20078;-64
2023/07/13 10:48:05;;;;;;;3.60;2.20;;;27.50;88.80;;;;;;5074144;28;20376;-64
2023/07/13 10:50:32;;;;;;;4.57;1.83;;;27.60;88.40;;;;;;5075127;28;20025;-63
2023/07/13 10:53:30;;;;;;;3.90;2.15;;;27.40;88.40;;;;;;5056917;28;20041;-63
2023/07/13 10:56:08;;;;;;;2.33;2.10;;;27.50;88.10;;;;;;5037407;28;20407;-63
2023/07/13 10:58:40;;;;;;;2.63;2.33;;;27.60;87.90;;;;;;5055076;28;20063;-63
2023/07/13 11:01:06;;;;;;;3.47;1.90;;;27.40;87.30;;;;;;5054920;28;20033;-63
2023/07/13 11:03:35;;;;;;;2.08;1.67;;;27.20;88.40;;;;;;5054947;28;20033;-63
2023/07/13 11:06:22;;;;;;;5.13;2.08;;;27.30;87.60;;;;;;5054589;28;20025;-64
2023/07/13 11:08:48;;;;;;;3.28;1.92;;;27.50;86.60;;;;;;5036915;28;20028;-64
2023/07/13 11:11:29;;;;;;;2.97;1.73;;;27.70;86.80;;;;;;5036838;28;20052;-63
2023/07/13 11:14:05;;;;;;;2.22;1.77;;;28.10;85.50;;;;;;5054693;28;20025;-63
2023/07/13 11:16:44;;;;;;;1.85;1.70;;;28.60;84.60;;;;;;5036999;28;20547;-64
2023/07/13 11:19:16;;;;;;;3.95;1.83;;;29.50;81.30;;;;;;5054701;28;20025;-63
2023/07/13 11:22:09;;;;;;;2.70;1.50;;;29.40;80.80;;;;;;5054656;28;20036;-63
2023/07/13 11:25:02;;;;;;;2.13;1.52;;;29.60;80.30;;;;;;5054269;28;20040;-63
2023/07/13 11:27:39;;;;;;;3.25;1.75;;;30.20;78.60;;;;;;5043944;28;20550;-68
2023/07/13 11:30:40;;;;;;;4.20;1.73;;;30.40;76.20;;;;;;5036519;28;20372;-68
2023/07/13 11:33:35;;;;;;;5.30;1.70;;;30.20;73.20;;;;;;5052864;28;20428;-67
2023/07/13 11:36:07;;;;;;;3.08;1.67;;;29.70;76.60;;;;;;5054211;28;20032;-67
2023/07/13 11:38:41;;;;;;;1.73;1.63;;;29.70;76.90;;;;;;5036387;28;20036;-67
2023/07/13 11:41:21;;;;;;;2.10;1.90;;;30.00;76.20;;;;;;5054063;28;20508;-68
2023/07/13 11:43:50;;;;;;;3.67;1.95;;;30.30;75.60;;;;;;5054742;28;20025;-67
2023/07/13 11:46:24;;;;;;;2.00;1.42;;;30.50;73.50;;;;;;5036331;28;20036;-67
2023/07/13 11:48:51;;;;;;;2.40;1.48;;;30.60;72.40;;;;;;5035720;28;20092;-68
2023/07/13 11:51:31;;;;;;;1.67;1.40;;;30.90;71.60;;;;;;5040265;28;20137;-67
2023/07/13 11:53:59;;;;;;;2.83;1.33;;;31.30;68.30;;;;;;5073325;28;20181;-67
2023/07/13 11:56:25;;;;;;;2.17;1.20;;;31.00;66.90;;;;;;5072592;28;20086;-67
2023/07/13 11:58:54;;;;;;;1.90;1.38;;;31.20;65.90;;;;;;5074191;28;20047;-67
2023/07/13 12:01:26;;;;;;;1.83;1.70;;;31.80;65.30;;;;;;5073469;28;20021;-66
2023/07/13 12:03:53;;;;;;;3.72;1.63;;;31.90;65.20;;;;;;5073740;28;20036;-67
2023/07/13 12:06:25;;;;;;;4.53;1.60;;;32.40;64.70;;;;;;5072528;28;20357;-67
2023/07/13 12:08:51;;;;;;;2.08;1.30;;;32.40;64.00;;;;;;5073744;28;20028;-66
2023/07/13 12:11:18;;;;;;;1.73;1.17;;;32.20;63.50;;;;;;5072705;28;20376;-67
2023/07/13 12:13:45;;;;;;;4.90;1.45;;;31.50;64.00;;;;;;5072599;28;20028;-68
2023/07/13 12:16:22;;;;;;;5.97;1.73;;;31.40;64.80;;;;;;5073470;28;20032;-66
2023/07/13 12:18:48;;;;;;;2.80;1.55;;;31.30;65.70;;;;;;5072798;28;20090;-66
2023/07/13 12:21:18;;;;;;;2.17;1.70;;;31.00;65.30;;;;;;5073709;28;20452;-67
2023/07/13 12:23:47;;;;;;;1.73;1.30;;;31.00;65.30;;;;;;5073767;28;20074;-66
2023/07/13 12:26:14;;;;;;;2.00;1.50;;;31.20;66.10;;;;;;5073384;28;20025;-66
2023/07/13 12:28:54;;;;;;;1.40;1.30;;;30.40;64.20;;;;;;5073448;28;20025;-67
2023/07/13 12:31:26;;;;;;;2.05;1.83;;;29.90;67.10;;;;;;5073689;28;20072;-66
2023/07/13 12:34:06;;;;;;;2.20;1.60;;;30.00;67.80;;;;;;5073475;28;20456;-66
2023/07/13 12:36:35;;;;;;;2.60;1.35;;;29.80;67.30;;;;;;5072300;28;20499;-67
2023/07/13 12:39:12;;;;;;;6.63;1.75;;;29.80;68.70;;;;;;5072378;28;20029;-66
2023/07/13 12:41:37;;;;;;;3.45;1.48;;;30.80;67.90;;;;;;5072440;28;20427;-66
2023/07/13 12:44:04;;;;;;;1.85;1.40;;;31.70;64.30;;;;;;5073488;28;20024;-66
2023/07/13 12:46:30;;;;;;;2.13;1.48;;;32.00;64.30;;;;;;5072157;28;20070;-66
2023/07/13 12:48:58;;;;;;;2.92;1.40;;;32.40;63.50;;;;;;5072094;28;20030;-66
2023/07/13 12:51:26;;;;;;;2.97;1.63;;;32.40;63.40;;;;;;5068066;28;20500;-66
2023/07/13 12:53:59;;;;;;;3.60;1.42;;;31.80;63.90;;;;;;5053139;28;20519;-66
2023/07/13 12:56:27;;;;;;;2.42;1.60;;;31.00;64.70;;;;;;5053411;28;20079;-66